Terminal Aerodrome Forecast
Issued by NWS

Home | Current Version | Previous Version | Text Only | Print | Product List | Glossary On
Versions: 1 2 3 4 5 6 7 8 9 10 11 12 13 14 15 16 17 18
000
FTUS42 KTAE 042336
TAFDHN
TAF
KDHN 042336Z 0500/0524 19006KT P6SM VCTS BKN040CB
      TEMPO 0500/0503 VRB15G25KT 2SM TSRA BKN025CB
     FM050300 22003KT P6SM BKN250
      TEMPO 0509/0513 4SM BR BKN015
     FM051500 27011KT P6SM VCTS SCT030CB
      TEMPO 0518/0521 P6SM TS BKN050CB
      AMD NOT SKED=

USA.gov is the U.S. government's official web portal to all federal, state and local government web resources and services.